Terminal Aerodrome Forecast
Issued by NWS

Home | Current Version | Previous Version | Text Only | Print | Product List | Glossary On
Versions: 1 2 3 4 5 6 7 8 9 10 11 12 13 14 15 16 17 18 19 20
066
FTUS46 KSEW 190520
TAFBFI
TAF
KBFI 190520Z 1906/2006 36015G25KT P6SM SCT070
     FM190700 04012G20KT P6SM SKC
     FM191200 04006KT P6SM SKC
     FM192000 33008KT P6SM FEW250
     FM200200 VRB03KT P6SM SCT250=

USA.gov is the U.S. government's official web portal to all federal, state and local government web resources and services.